Terminal Aerodrome Forecast
Issued by NWS

Home | Current Version | Previous Version | Text Only | Print | Product List | Glossary Off
Versions: 1 2 3 4 5 6 7 8 9 10 11 12 13 14 15 16 17 18 19 20

707
FTUS43 KBIS 251134
TAFDIK
TAF
KDIK 251134Z 2512/2612 25011KT 3SM BR SCT002
      TEMPO 2512/2513 1/4SM FG
     FM251400 26025G35KT P6SM BKN080
     FM260100 28015KT P6SM BKN060=

USA.gov is the U.S. government's official web portal to all federal, state and local government web resources and services.